DAL1219 KATL-KLAX
Flight info
| Callsign | DAL1219 |
|---|---|
| Flight time | 4h 33m |
| Altitude | 32000 |
| Route | NASSA2 YAALL J14 IRW/N0460F340 J14 PNH ACH ABQ J78 DRK GABBL HLYWD1 |
| Aircraft | A21N/M-SDE2E3FGHIRWXY/LB1 |
Departure
| Time | 2026-05-03 20:50 |
|---|---|
| Airport | Hartsfield Jackson Atlanta International Airport (KATL) |
Arrival
| Time | 2026-05-04 01:24 |
|---|---|
| Airport | Los Angeles International Airport (KLAX) |
| Time | Latitude | Longitude | Altitude | Speed | Heading |
|---|---|---|---|---|---|
| 2026-05-03 20:15 | 33.64293 | -84.43974 | 1041 ft | 0 kts | 90° |
| 2026-05-03 20:19 | 33.64293 | -84.43975 | 1041 ft | 0 kts | 90° |
| 2026-05-03 20:33 | 33.64293 | -84.44004 | 1041 ft | 4 kts | 90° |
| 2026-05-03 20:33 | 33.64291 | -84.44032 | 1041 ft | 4 kts | 64° |
| 2026-05-03 20:33 | 33.64275 | -84.44049 | 1041 ft | 4 kts | 11° |
| 2026-05-03 20:33 | 33.64257 | -84.44051 | 1041 ft | 1 kts | 0° |
| 2026-05-03 20:34 | 33.64253 | -84.44051 | 1041 ft | 0 kts | 0° |
| 2026-05-03 20:39 | 33.64268 | -84.44052 | 1041 ft | 4 kts | 359° |
| 2026-05-03 20:39 | 33.64298 | -84.44054 | 1041 ft | 5 kts | 357° |
| 2026-05-03 20:39 | 33.64336 | -84.44052 | 1041 ft | 6 kts | 3° |
| 2026-05-03 20:39 | 33.64353 | -84.44051 | 1041 ft | 0 kts | 2° |
| 2026-05-03 20:41 | 33.64367 | -84.44050 | 1041 ft | 4 kts | 6° |
| 2026-05-03 20:41 | 33.64408 | -84.44024 | 1041 ft | 9 kts | 49° |
| 2026-05-03 20:41 | 33.64434 | -84.43934 | 1041 ft | 14 kts | 81° |
| 2026-05-03 20:41 | 33.64450 | -84.43803 | 1041 ft | 18 kts | 83° |
| 2026-05-03 20:42 | 33.64459 | -84.43624 | 1041 ft | 24 kts | 89° |
| 2026-05-03 20:42 | 33.64459 | -84.43517 | 1041 ft | 10 kts | 90° |
| 2026-05-03 20:42 | 33.64459 | -84.43411 | 1041 ft | 19 kts | 89° |
| 2026-05-03 20:42 | 33.64461 | -84.43237 | 1041 ft | 21 kts | 89° |
| 2026-05-03 20:43 | 33.64462 | -84.43057 | 1041 ft | 22 kts | 89° |
| 2026-05-03 20:43 | 33.64462 | -84.42872 | 1041 ft | 23 kts | 91° |
| 2026-05-03 20:43 | 33.64468 | -84.42678 | 1041 ft | 24 kts | 88° |
| 2026-05-03 20:43 | 33.64469 | -84.42474 | 1040 ft | 24 kts | 90° |
| 2026-05-03 20:44 | 33.64470 | -84.42267 | 1040 ft | 25 kts | 83° |
| 2026-05-03 20:44 | 33.64499 | -84.42201 | 1040 ft | 9 kts | 53° |
| 2026-05-03 20:44 | 33.64535 | -84.42129 | 1040 ft | 11 kts | 70° |
| 2026-05-03 20:44 | 33.64543 | -84.42023 | 1040 ft | 14 kts | 89° |
| 2026-05-03 20:45 | 33.64543 | -84.41886 | 1041 ft | 18 kts | 90° |
| 2026-05-03 20:45 | 33.64544 | -84.41724 | 1041 ft | 20 kts | 89° |
| 2026-05-03 20:45 | 33.64544 | -84.41553 | 1041 ft | 21 kts | 90° |
| 2026-05-03 20:45 | 33.64543 | -84.41376 | 1041 ft | 22 kts | 90° |
| 2026-05-03 20:46 | 33.64542 | -84.41194 | 1041 ft | 22 kts | 90° |
| 2026-05-03 20:46 | 33.64542 | -84.41007 | 1041 ft | 23 kts | 90° |
| 2026-05-03 20:46 | 33.64543 | -84.40894 | 1040 ft | 10 kts | 90° |
| 2026-05-03 20:46 | 33.64557 | -84.40804 | 1040 ft | 12 kts | 66° |
| 2026-05-03 20:47 | 33.64570 | -84.40704 | 1040 ft | 13 kts | 91° |
| 2026-05-03 20:47 | 33.64571 | -84.40609 | 1040 ft | 4 kts | 84° |
| 2026-05-03 20:47 | 33.64583 | -84.40586 | 1040 ft | 0 kts | 43° |
| 2026-05-03 20:48 | 33.64583 | -84.40585 | 1040 ft | 1 kts | 43° |
| 2026-05-03 20:48 | 33.64599 | -84.40576 | 1039 ft | 4 kts | 15° |
| 2026-05-03 20:49 | 33.64643 | -84.40582 | 1038 ft | 9 kts | 332° |
| 2026-05-03 20:49 | 33.64678 | -84.40665 | 1038 ft | 14 kts | 275° |
| 2026-05-03 20:49 | 33.64679 | -84.40714 | 1038 ft | 0 kts | 270° |
| 2026-05-03 20:49 | 33.64679 | -84.40719 | 1038 ft | 6 kts | 270° |
| 2026-05-03 20:50 | 33.64679 | -84.41044 | 1041 ft | 75 kts | 270° |
| 2026-05-03 20:50 | 33.64681 | -84.41941 | 1041 ft | 136 kts | 270° |
| 2026-05-03 20:50 | 33.64684 | -84.43208 | 1168 ft | 161 kts | 271° |
| 2026-05-03 20:50 | 33.64678 | -84.44589 | 1667 ft | 169 kts | 269° |
| 2026-05-03 20:51 | 33.64674 | -84.46010 | 2288 ft | 174 kts | 274° |
| 2026-05-03 20:51 | 33.64875 | -84.47503 | 2698 ft | 188 kts | 284° |
| 2026-05-03 20:51 | 33.65196 | -84.49097 | 3150 ft | 204 kts | 284° |
| 2026-05-03 20:51 | 33.65538 | -84.50833 | 3533 ft | 227 kts | 284° |
| 2026-05-03 20:52 | 33.65920 | -84.52790 | 3899 ft | 251 kts | 283° |
| 2026-05-03 20:52 | 33.66322 | -84.54862 | 4615 ft | 258 kts | 283° |
| 2026-05-03 20:52 | 33.66722 | -84.56946 | 5419 ft | 260 kts | 283° |
| 2026-05-03 20:52 | 33.67129 | -84.59075 | 6221 ft | 263 kts | 283° |
| 2026-05-03 20:53 | 33.67499 | -84.61235 | 6992 ft | 265 kts | 282° |
| 2026-05-03 20:53 | 33.67864 | -84.63414 | 7738 ft | 267 kts | 282° |
| 2026-05-03 20:53 | 33.68235 | -84.65612 | 8485 ft | 269 kts | 282° |
| 2026-05-03 20:53 | 33.68605 | -84.67831 | 9202 ft | 273 kts | 282° |
| 2026-05-03 20:54 | 33.68981 | -84.70072 | 9939 ft | 276 kts | 282° |
| 2026-05-03 20:54 | 33.69779 | -84.74813 | 10634 ft | 307 kts | 281° |
| 2026-05-03 20:54 | 33.70006 | -84.77445 | 10872 ft | 327 kts | 272° |
| 2026-05-03 20:55 | 33.70013 | -84.80252 | 11123 ft | 344 kts | 270° |
| 2026-05-03 20:55 | 33.69991 | -84.83164 | 11623 ft | 352 kts | 270° |
| 2026-05-03 20:55 | 33.69974 | -84.86119 | 12254 ft | 356 kts | 270° |
| 2026-05-03 20:55 | 33.69963 | -84.89100 | 12914 ft | 359 kts | 271° |
| 2026-05-03 20:56 | 33.69959 | -84.92101 | 13575 ft | 361 kts | 271° |
| 2026-05-03 20:56 | 33.69950 | -84.95132 | 14209 ft | 364 kts | 270° |
| 2026-05-03 20:56 | 33.69937 | -84.98185 | 14793 ft | 367 kts | 270° |
| 2026-05-03 20:56 | 33.69929 | -85.01260 | 15370 ft | 370 kts | 270° |
| 2026-05-03 20:57 | 33.69920 | -85.04353 | 15950 ft | 372 kts | 270° |
| 2026-05-03 20:57 | 33.69903 | -85.07488 | 16308 ft | 380 kts | 270° |
| 2026-05-03 20:57 | 33.69891 | -85.10666 | 16955 ft | 381 kts | 270° |
| 2026-05-03 20:57 | 33.69879 | -85.13842 | 17590 ft | 381 kts | 270° |
| 2026-05-03 20:58 | 33.69869 | -85.17039 | 18186 ft | 384 kts | 270° |
| 2026-05-03 20:58 | 33.69857 | -85.20246 | 18705 ft | 386 kts | 270° |
| 2026-05-03 20:58 | 33.69845 | -85.23485 | 19185 ft | 389 kts | 270° |
| 2026-05-03 20:58 | 33.69813 | -85.26741 | 19676 ft | 391 kts | 269° |
| 2026-05-03 20:59 | 33.69771 | -85.30022 | 20142 ft | 394 kts | 269° |
| 2026-05-03 20:59 | 33.69731 | -85.33314 | 20606 ft | 396 kts | 269° |
| 2026-05-03 20:59 | 33.69696 | -85.36635 | 21078 ft | 399 kts | 269° |
| 2026-05-03 20:59 | 33.69656 | -85.39975 | 21539 ft | 401 kts | 269° |
| 2026-05-03 21:00 | 33.69614 | -85.43330 | 21989 ft | 404 kts | 269° |
| 2026-05-03 21:00 | 33.69601 | -85.44423 | 22131 ft | 405 kts | 269° |
| 2026-05-03 21:00 | 33.69521 | -85.50076 | 22840 ft | 409 kts | 269° |
| 2026-05-03 21:00 | 33.69483 | -85.53503 | 23277 ft | 412 kts | 269° |
| 2026-05-03 21:01 | 33.69436 | -85.56954 | 23700 ft | 415 kts | 269° |
| 2026-05-03 21:01 | 33.69395 | -85.60426 | 24055 ft | 417 kts | 269° |
| 2026-05-03 21:01 | 33.69350 | -85.63912 | 24426 ft | 419 kts | 269° |
| 2026-05-03 21:01 | 33.69306 | -85.67414 | 24812 ft | 420 kts | 269° |
| 2026-05-03 21:02 | 33.69260 | -85.70928 | 25175 ft | 422 kts | 269° |
| 2026-05-03 21:02 | 33.69206 | -85.74458 | 25527 ft | 423 kts | 269° |
| 2026-05-03 21:02 | 33.69153 | -85.77997 | 25880 ft | 425 kts | 269° |
| 2026-05-03 21:02 | 33.69100 | -85.81551 | 26241 ft | 426 kts | 269° |
| 2026-05-03 21:03 | 33.69043 | -85.85113 | 26596 ft | 428 kts | 269° |
| 2026-05-03 21:03 | 33.68991 | -85.88696 | 26948 ft | 430 kts | 269° |
| 2026-05-03 21:03 | 33.68935 | -85.92290 | 27279 ft | 431 kts | 269° |
| 2026-05-03 21:03 | 33.68876 | -85.95901 | 27618 ft | 433 kts | 269° |
| 2026-05-03 21:04 | 33.68817 | -85.99504 | 28070 ft | 432 kts | 269° |
| 2026-05-03 21:04 | 33.68761 | -86.03107 | 28515 ft | 430 kts | 270° |
| 2026-05-03 21:04 | 33.68916 | -86.06677 | 28947 ft | 428 kts | 275° |
| 2026-05-03 21:04 | 33.69188 | -86.10230 | 29380 ft | 427 kts | 275° |
| 2026-05-03 21:05 | 33.69472 | -86.13766 | 29793 ft | 425 kts | 275° |
| 2026-05-03 21:05 | 33.69751 | -86.17296 | 30187 ft | 424 kts | 275° |
| 2026-05-03 21:05 | 33.70030 | -86.20823 | 30411 ft | 425 kts | 275° |
| 2026-05-03 21:05 | 33.70312 | -86.24362 | 30649 ft | 426 kts | 275° |
| 2026-05-03 21:06 | 33.70587 | -86.27905 | 30989 ft | 425 kts | 275° |
| 2026-05-03 21:06 | 33.70856 | -86.31424 | 31325 ft | 423 kts | 275° |
| 2026-05-03 21:06 | 33.71128 | -86.34938 | 31666 ft | 421 kts | 275° |
| 2026-05-03 21:06 | 33.71395 | -86.38428 | 31974 ft | 419 kts | 275° |
| 2026-05-03 21:07 | 33.71664 | -86.41906 | 32188 ft | 418 kts | 274° |
| 2026-05-03 21:07 | 33.71927 | -86.45377 | 32214 ft | 416 kts | 274° |
| 2026-05-03 21:07 | 33.72456 | -86.52299 | 32200 ft | 416 kts | 274° |
| 2026-05-03 21:08 | 33.72974 | -86.59223 | 32193 ft | 419 kts | 275° |
| 2026-05-03 21:08 | 33.73491 | -86.66222 | 32194 ft | 421 kts | 275° |
| 2026-05-03 21:09 | 33.74014 | -86.73232 | 32194 ft | 421 kts | 275° |
| 2026-05-03 21:09 | 33.74527 | -86.80237 | 32192 ft | 421 kts | 275° |
| 2026-05-03 21:10 | 33.75044 | -86.87250 | 32188 ft | 421 kts | 275° |
| 2026-05-03 21:10 | 33.75554 | -86.94248 | 32191 ft | 421 kts | 275° |
| 2026-05-03 21:11 | 33.76052 | -87.01298 | 32176 ft | 425 kts | 275° |
| 2026-05-03 21:11 | 33.76564 | -87.08386 | 32176 ft | 426 kts | 275° |
| 2026-05-03 21:12 | 33.77066 | -87.15480 | 32148 ft | 426 kts | 275° |
| 2026-05-03 21:12 | 33.77563 | -87.22564 | 32165 ft | 425 kts | 275° |
| 2026-05-03 21:13 | 33.78053 | -87.29652 | 32166 ft | 425 kts | 275° |
| 2026-05-03 21:13 | 33.78548 | -87.36745 | 32166 ft | 427 kts | 276° |
| 2026-05-03 21:14 | 33.79033 | -87.43865 | 32166 ft | 427 kts | 276° |
| 2026-05-03 21:14 | 33.79656 | -87.49732 | 32159 ft | 426 kts | 283° |
| 2026-05-03 21:15 | 33.81094 | -87.56652 | 32160 ft | 426 kts | 285° |
| 2026-05-03 21:15 | 33.82784 | -87.64687 | 32158 ft | 426 kts | 284° |
| 2026-05-03 21:16 | 33.83990 | -87.70476 | 32156 ft | 426 kts | 284° |
| 2026-05-03 21:16 | 33.85421 | -87.77397 | 32152 ft | 426 kts | 285° |
| 2026-05-03 21:17 | 33.86849 | -87.84318 | 32151 ft | 426 kts | 285° |
| 2026-05-03 21:17 | 33.88274 | -87.91235 | 32156 ft | 426 kts | 285° |
| 2026-05-03 21:18 | 33.89691 | -87.98167 | 32159 ft | 426 kts | 285° |
| 2026-05-03 21:18 | 33.91100 | -88.05088 | 32161 ft | 426 kts | 285° |
| 2026-05-03 21:19 | 33.92516 | -88.12014 | 32152 ft | 425 kts | 285° |
| 2026-05-03 21:19 | 33.93929 | -88.18937 | 32157 ft | 426 kts | 285° |
| 2026-05-03 21:20 | 33.95325 | -88.25833 | 32162 ft | 423 kts | 285° |
| 2026-05-03 21:20 | 33.96716 | -88.32721 | 32163 ft | 423 kts | 285° |
| 2026-05-03 21:21 | 33.98101 | -88.39611 | 32159 ft | 423 kts | 285° |
| 2026-05-03 21:21 | 33.99484 | -88.46504 | 32160 ft | 423 kts | 284° |
| 2026-05-03 21:22 | 34.00856 | -88.53386 | 32162 ft | 422 kts | 285° |
| 2026-05-03 21:22 | 34.02221 | -88.60230 | 32163 ft | 423 kts | 285° |
| 2026-05-03 21:23 | 34.03589 | -88.67116 | 32170 ft | 422 kts | 285° |
| 2026-05-03 21:23 | 34.04959 | -88.74004 | 32169 ft | 422 kts | 285° |
| 2026-05-03 21:24 | 34.06329 | -88.80920 | 32167 ft | 425 kts | 284° |
| 2026-05-03 21:24 | 34.07700 | -88.87849 | 32157 ft | 424 kts | 285° |
| 2026-05-03 21:25 | 34.09054 | -88.94756 | 32168 ft | 423 kts | 284° |
| 2026-05-03 21:25 | 34.10407 | -89.01672 | 32165 ft | 423 kts | 285° |
| 2026-05-03 21:26 | 34.11760 | -89.08587 | 32167 ft | 423 kts | 285° |
| 2026-05-03 21:26 | 34.13103 | -89.15499 | 32161 ft | 423 kts | 284° |
| 2026-05-03 21:27 | 34.14444 | -89.22418 | 32162 ft | 423 kts | 284° |
| 2026-05-03 21:27 | 34.15777 | -89.29317 | 32162 ft | 421 kts | 285° |
| 2026-05-03 21:28 | 34.17103 | -89.36206 | 32160 ft | 421 kts | 285° |
| 2026-05-03 21:28 | 34.18417 | -89.43040 | 32156 ft | 421 kts | 284° |
| 2026-05-03 21:29 | 34.19739 | -89.49922 | 32154 ft | 421 kts | 284° |
| 2026-05-03 21:29 | 34.21256 | -89.56741 | 32154 ft | 420 kts | 288° |
| 2026-05-03 21:30 | 34.22898 | -89.63485 | 32153 ft | 418 kts | 288° |
| 2026-05-03 21:30 | 34.24538 | -89.70223 | 32152 ft | 418 kts | 288° |
| 2026-05-03 21:31 | 34.26163 | -89.76969 | 32133 ft | 418 kts | 288° |
| 2026-05-03 21:31 | 34.27791 | -89.83709 | 32130 ft | 418 kts | 287° |
| 2026-05-03 21:32 | 34.29411 | -89.90459 | 32132 ft | 418 kts | 287° |
| 2026-05-03 21:32 | 34.31030 | -89.97210 | 32130 ft | 418 kts | 288° |
| 2026-05-03 21:33 | 34.32648 | -90.03949 | 32140 ft | 417 kts | 288° |
| 2026-05-03 21:33 | 34.34240 | -90.10641 | 32146 ft | 417 kts | 288° |
| 2026-05-03 21:34 | 34.35839 | -90.17379 | 32142 ft | 417 kts | 287° |
| 2026-05-03 21:34 | 34.37438 | -90.24119 | 32138 ft | 417 kts | 288° |
| 2026-05-03 21:35 | 34.39031 | -90.30867 | 32134 ft | 417 kts | 287° |
| 2026-05-03 21:35 | 34.40622 | -90.37621 | 32133 ft | 417 kts | 287° |
| 2026-05-03 21:36 | 34.42205 | -90.44354 | 32129 ft | 415 kts | 287° |
| 2026-05-03 21:36 | 34.43790 | -90.51080 | 32133 ft | 415 kts | 288° |
| 2026-05-03 21:37 | 34.45364 | -90.57814 | 32139 ft | 415 kts | 287° |
| 2026-05-03 21:37 | 34.46937 | -90.64546 | 32142 ft | 415 kts | 287° |
| 2026-05-03 21:38 | 34.48506 | -90.71275 | 32147 ft | 415 kts | 287° |
| 2026-05-03 21:38 | 34.50067 | -90.77994 | 32132 ft | 414 kts | 287° |
| 2026-05-03 21:39 | 34.51621 | -90.84701 | 32143 ft | 413 kts | 287° |
| 2026-05-03 21:39 | 34.53170 | -90.91415 | 32139 ft | 414 kts | 287° |
| 2026-05-03 21:40 | 34.54716 | -90.98134 | 32138 ft | 414 kts | 287° |
| 2026-05-03 21:40 | 34.56261 | -91.04852 | 32138 ft | 414 kts | 287° |
| 2026-05-03 21:41 | 34.57799 | -91.11576 | 32138 ft | 413 kts | 287° |
| 2026-05-03 21:41 | 34.59325 | -91.18247 | 32129 ft | 412 kts | 287° |
| 2026-05-03 21:42 | 34.60852 | -91.24953 | 32130 ft | 412 kts | 287° |
| 2026-05-03 21:42 | 34.62382 | -91.31704 | 32127 ft | 412 kts | 287° |
| 2026-05-03 21:43 | 34.63893 | -91.38369 | 32122 ft | 412 kts | 287° |
| 2026-05-03 21:43 | 34.65406 | -91.45077 | 32124 ft | 412 kts | 287° |
| 2026-05-03 21:44 | 34.66918 | -91.51789 | 32124 ft | 412 kts | 287° |
| 2026-05-03 21:44 | 34.68426 | -91.58490 | 32120 ft | 411 kts | 287° |
| 2026-05-03 21:45 | 34.69928 | -91.65194 | 32123 ft | 411 kts | 287° |
| 2026-05-03 21:45 | 34.71425 | -91.71898 | 32123 ft | 411 kts | 287° |
| 2026-05-03 21:46 | 34.72915 | -91.78597 | 32133 ft | 409 kts | 287° |
| 2026-05-03 21:46 | 34.74397 | -91.85280 | 32120 ft | 410 kts | 287° |
| 2026-05-03 21:47 | 34.75864 | -91.91928 | 32090 ft | 409 kts | 287° |
| 2026-05-03 21:47 | 34.77346 | -91.98602 | 32092 ft | 409 kts | 287° |
| 2026-05-03 21:48 | 34.78813 | -92.05281 | 32087 ft | 409 kts | 287° |
| 2026-05-03 21:48 | 34.80277 | -92.11964 | 32099 ft | 409 kts | 287° |
| 2026-05-03 21:49 | 34.81347 | -92.18767 | 32072 ft | 411 kts | 279° |
| 2026-05-03 21:49 | 34.81961 | -92.25680 | 32070 ft | 411 kts | 279° |
| 2026-05-03 21:50 | 34.82575 | -92.32593 | 32062 ft | 410 kts | 279° |
| 2026-05-03 21:50 | 34.83194 | -92.39486 | 32070 ft | 410 kts | 279° |
| 2026-05-03 21:51 | 34.83813 | -92.46381 | 32075 ft | 410 kts | 278° |
| 2026-05-03 21:51 | 34.84425 | -92.53282 | 32064 ft | 410 kts | 279° |
| 2026-05-03 21:52 | 34.85023 | -92.60181 | 32062 ft | 410 kts | 278° |
| 2026-05-03 21:52 | 34.85622 | -92.67084 | 32064 ft | 410 kts | 279° |
| 2026-05-03 21:53 | 34.86228 | -92.73976 | 32063 ft | 409 kts | 278° |
| 2026-05-03 21:53 | 34.86818 | -92.80820 | 32066 ft | 409 kts | 278° |
| 2026-05-03 21:54 | 34.87411 | -92.87713 | 32080 ft | 409 kts | 278° |
| 2026-05-03 21:54 | 34.87996 | -92.94599 | 32078 ft | 409 kts | 278° |
| 2026-05-03 21:55 | 34.88576 | -93.01488 | 32073 ft | 409 kts | 278° |
| 2026-05-03 21:55 | 34.89155 | -93.08377 | 32059 ft | 408 kts | 278° |
| 2026-05-03 21:56 | 34.89737 | -93.15253 | 32068 ft | 408 kts | 278° |
| 2026-05-03 21:56 | 34.90303 | -93.22131 | 32052 ft | 408 kts | 278° |
| 2026-05-03 21:57 | 34.90868 | -93.29014 | 32050 ft | 408 kts | 278° |
| 2026-05-03 21:57 | 34.91430 | -93.35899 | 32046 ft | 408 kts | 278° |
| 2026-05-03 21:58 | 34.91993 | -93.42780 | 32047 ft | 408 kts | 278° |
| 2026-05-03 21:58 | 34.92546 | -93.49663 | 32046 ft | 408 kts | 278° |
| 2026-05-03 21:59 | 34.93098 | -93.56544 | 32050 ft | 408 kts | 278° |
| 2026-05-03 21:59 | 34.93646 | -93.63433 | 32051 ft | 408 kts | 278° |
| 2026-05-03 22:00 | 34.94187 | -93.70297 | 32058 ft | 407 kts | 278° |
| 2026-05-03 22:00 | 34.94726 | -93.77170 | 32052 ft | 407 kts | 278° |
| 2026-05-03 22:01 | 34.95260 | -93.84049 | 32045 ft | 408 kts | 278° |
| 2026-05-03 22:01 | 34.95789 | -93.90916 | 32051 ft | 407 kts | 278° |
| 2026-05-03 22:02 | 34.96316 | -93.97776 | 32051 ft | 407 kts | 278° |
| 2026-05-03 22:02 | 34.96839 | -94.04592 | 32050 ft | 407 kts | 278° |
| 2026-05-03 22:03 | 34.97356 | -94.11468 | 32049 ft | 407 kts | 278° |
| 2026-05-03 22:03 | 34.97872 | -94.18337 | 32041 ft | 407 kts | 278° |
| 2026-05-03 22:04 | 34.98381 | -94.25201 | 32032 ft | 406 kts | 277° |
| 2026-05-03 22:04 | 34.98882 | -94.32057 | 32031 ft | 406 kts | 277° |
| 2026-05-03 22:05 | 34.99384 | -94.38908 | 32028 ft | 406 kts | 277° |
| 2026-05-03 22:05 | 34.99885 | -94.45763 | 32023 ft | 406 kts | 277° |
| 2026-05-03 22:06 | 35.00301 | -94.51511 | 32021 ft | 406 kts | 277° |
| 2026-05-03 22:06 | 35.00791 | -94.58334 | 32006 ft | 406 kts | 277° |
| 2026-05-03 22:07 | 35.01274 | -94.65183 | 32036 ft | 406 kts | 277° |
| 2026-05-03 22:07 | 35.02018 | -94.71984 | 32035 ft | 403 kts | 281° |
| 2026-05-03 22:08 | 35.02959 | -94.78772 | 32041 ft | 403 kts | 281° |
| 2026-05-03 22:08 | 35.03874 | -94.85470 | 32035 ft | 403 kts | 281° |
| 2026-05-03 22:09 | 35.04788 | -94.92229 | 32039 ft | 403 kts | 281° |
| 2026-05-03 22:10 | 35.06146 | -95.02337 | 32036 ft | 402 kts | 281° |
| 2026-05-03 22:10 | 35.07047 | -95.09072 | 32048 ft | 402 kts | 281° |
| 2026-05-03 22:11 | 35.07948 | -95.15806 | 32023 ft | 402 kts | 281° |
| 2026-05-03 22:11 | 35.08845 | -95.22544 | 32028 ft | 402 kts | 281° |
| 2026-05-03 22:12 | 35.09734 | -95.29284 | 32032 ft | 402 kts | 281° |
| 2026-05-03 22:12 | 35.10624 | -95.36027 | 32020 ft | 401 kts | 281° |
| 2026-05-03 22:13 | 35.11504 | -95.42749 | 32023 ft | 401 kts | 281° |
| 2026-05-03 22:13 | 35.12366 | -95.49490 | 32051 ft | 402 kts | 280° |
| 2026-05-03 22:14 | 35.13162 | -95.56236 | 32025 ft | 401 kts | 280° |
| 2026-05-03 22:14 | 35.13960 | -95.62983 | 32032 ft | 401 kts | 280° |
| 2026-05-03 22:15 | 35.14766 | -95.69733 | 32029 ft | 401 kts | 280° |
| 2026-05-03 22:15 | 35.15566 | -95.76472 | 32025 ft | 400 kts | 280° |
| 2026-05-03 22:16 | 35.16349 | -95.83210 | 32024 ft | 400 kts | 280° |
| 2026-05-03 22:16 | 35.17141 | -95.89942 | 32025 ft | 400 kts | 280° |
| 2026-05-03 22:17 | 35.17932 | -95.96677 | 32022 ft | 400 kts | 280° |
| 2026-05-03 22:17 | 35.18711 | -96.03368 | 32023 ft | 400 kts | 280° |
| 2026-05-03 22:18 | 35.19489 | -96.10110 | 32012 ft | 400 kts | 279° |
| 2026-05-03 22:18 | 35.20259 | -96.16839 | 32010 ft | 399 kts | 279° |
| 2026-05-03 22:19 | 35.21023 | -96.23562 | 32016 ft | 399 kts | 279° |
| 2026-05-03 22:19 | 35.21788 | -96.30294 | 32010 ft | 399 kts | 279° |
| 2026-05-03 22:20 | 35.22545 | -96.37021 | 32009 ft | 399 kts | 279° |
| 2026-05-03 22:20 | 35.23295 | -96.43750 | 32011 ft | 400 kts | 279° |
| 2026-05-03 22:21 | 35.24049 | -96.50484 | 32003 ft | 399 kts | 279° |
| 2026-05-03 22:21 | 35.24797 | -96.57218 | 31998 ft | 399 kts | 279° |
| 2026-05-03 22:22 | 35.25543 | -96.63946 | 32001 ft | 399 kts | 279° |
| 2026-05-03 22:22 | 35.26286 | -96.70669 | 32000 ft | 399 kts | 279° |
| 2026-05-03 22:23 | 35.27020 | -96.77359 | 32002 ft | 399 kts | 279° |
| 2026-05-03 22:23 | 35.27753 | -96.84092 | 32000 ft | 399 kts | 279° |
| 2026-05-03 22:24 | 35.28483 | -96.90808 | 31996 ft | 398 kts | 279° |
| 2026-05-03 22:24 | 35.29205 | -96.97518 | 32000 ft | 398 kts | 279° |
| 2026-05-03 22:25 | 35.29922 | -97.04238 | 32016 ft | 398 kts | 279° |
| 2026-05-03 22:25 | 35.30625 | -97.10962 | 32001 ft | 398 kts | 279° |
| 2026-05-03 22:26 | 35.31340 | -97.17687 | 31999 ft | 398 kts | 279° |
| 2026-05-03 22:26 | 35.32054 | -97.24415 | 31994 ft | 398 kts | 279° |
| 2026-05-03 22:27 | 35.32772 | -97.31138 | 31990 ft | 398 kts | 279° |
| 2026-05-03 22:27 | 35.33477 | -97.37873 | 31991 ft | 399 kts | 279° |
| 2026-05-03 22:28 | 35.34177 | -97.44606 | 31989 ft | 399 kts | 279° |
| 2026-05-03 22:28 | 35.34873 | -97.51347 | 31997 ft | 399 kts | 278° |
| 2026-05-03 22:29 | 35.35564 | -97.58091 | 32002 ft | 399 kts | 279° |
| 2026-05-03 22:29 | 35.35821 | -97.64887 | 31998 ft | 401 kts | 271° |
| 2026-05-03 22:30 | 35.35712 | -97.71714 | 31999 ft | 401 kts | 271° |
| 2026-05-03 22:30 | 35.35605 | -97.78538 | 31977 ft | 401 kts | 271° |
| 2026-05-03 22:31 | 35.35502 | -97.85362 | 31977 ft | 401 kts | 271° |
| 2026-05-03 22:31 | 35.35397 | -97.92185 | 31986 ft | 401 kts | 271° |
| 2026-05-03 22:32 | 35.35287 | -97.98961 | 31979 ft | 400 kts | 271° |
| 2026-05-03 22:32 | 35.35173 | -98.05763 | 31985 ft | 400 kts | 271° |
| 2026-05-03 22:33 | 35.35058 | -98.12566 | 31983 ft | 399 kts | 271° |
| 2026-05-03 22:33 | 35.34936 | -98.19364 | 31981 ft | 399 kts | 271° |
| 2026-05-03 22:34 | 35.34806 | -98.26162 | 31978 ft | 399 kts | 271° |
| 2026-05-03 22:34 | 35.34682 | -98.32962 | 31974 ft | 399 kts | 271° |
| 2026-05-03 22:35 | 35.34550 | -98.39754 | 31966 ft | 398 kts | 271° |
| 2026-05-03 22:35 | 35.34411 | -98.46540 | 31971 ft | 399 kts | 271° |
| 2026-05-03 22:36 | 35.34269 | -98.53326 | 31972 ft | 399 kts | 271° |
| 2026-05-03 22:36 | 35.34128 | -98.60114 | 31975 ft | 399 kts | 271° |
| 2026-05-03 22:37 | 35.33981 | -98.66896 | 31966 ft | 399 kts | 271° |
| 2026-05-03 22:37 | 35.33830 | -98.73681 | 31957 ft | 398 kts | 271° |
| 2026-05-03 22:38 | 35.33675 | -98.80442 | 31963 ft | 397 kts | 271° |
| 2026-05-03 22:38 | 35.33518 | -98.87200 | 31957 ft | 397 kts | 271° |
| 2026-05-03 22:39 | 35.33356 | -98.93959 | 31960 ft | 397 kts | 271° |
| 2026-05-03 22:39 | 35.33189 | -99.00673 | 31971 ft | 397 kts | 271° |
| 2026-05-03 22:40 | 35.33020 | -99.07431 | 31973 ft | 397 kts | 270° |
| 2026-05-03 22:40 | 35.32841 | -99.14173 | 31977 ft | 395 kts | 270° |
| 2026-05-03 22:41 | 35.32665 | -99.20904 | 31978 ft | 395 kts | 270° |
| 2026-05-03 22:41 | 35.32487 | -99.27628 | 31980 ft | 395 kts | 270° |
| 2026-05-03 22:42 | 35.32304 | -99.34356 | 31977 ft | 395 kts | 270° |
| 2026-05-03 22:42 | 35.32119 | -99.41086 | 31954 ft | 395 kts | 270° |
| 2026-05-03 22:43 | 35.31925 | -99.47814 | 31945 ft | 394 kts | 270° |
| 2026-05-03 22:43 | 35.31730 | -99.54500 | 31949 ft | 393 kts | 270° |
| 2026-05-03 22:44 | 35.31531 | -99.61187 | 31948 ft | 394 kts | 270° |
| 2026-05-03 22:44 | 35.31332 | -99.67850 | 31956 ft | 394 kts | 270° |
| 2026-05-03 22:44 | 35.31229 | -99.71204 | 32130 ft | 394 kts | 270° |
| 2026-05-03 22:45 | 35.31126 | -99.74558 | 32427 ft | 393 kts | 270° |
| 2026-05-03 22:45 | 35.31021 | -99.77890 | 32745 ft | 392 kts | 270° |
| 2026-05-03 22:45 | 35.30917 | -99.81223 | 33043 ft | 390 kts | 271° |
| 2026-05-03 22:45 | 35.30811 | -99.84539 | 33310 ft | 389 kts | 271° |
| 2026-05-03 22:46 | 35.30705 | -99.87831 | 33625 ft | 386 kts | 271° |
| 2026-05-03 22:46 | 35.30598 | -99.91115 | 33908 ft | 384 kts | 271° |
| 2026-05-03 22:46 | 35.30492 | -99.94369 | 33965 ft | 382 kts | 271° |
| 2026-05-03 22:47 | 35.30279 | -100.00848 | 33946 ft | 381 kts | 271° |
| 2026-05-03 22:47 | 35.30068 | -100.07318 | 33935 ft | 381 kts | 271° |
| 2026-05-03 22:48 | 35.29843 | -100.13799 | 33934 ft | 381 kts | 271° |
| 2026-05-03 22:48 | 35.29620 | -100.20273 | 33933 ft | 381 kts | 271° |
| 2026-05-03 22:49 | 35.29394 | -100.26713 | 33928 ft | 378 kts | 271° |
| 2026-05-03 22:49 | 35.29170 | -100.33140 | 33929 ft | 378 kts | 271° |
| 2026-05-03 22:50 | 35.28938 | -100.39566 | 33931 ft | 378 kts | 270° |
| 2026-05-03 22:50 | 35.28701 | -100.45993 | 33926 ft | 378 kts | 270° |
| 2026-05-03 22:51 | 35.28460 | -100.52421 | 33926 ft | 378 kts | 270° |
| 2026-05-03 22:51 | 35.28221 | -100.58841 | 33909 ft | 377 kts | 270° |
| 2026-05-03 22:52 | 35.27979 | -100.65182 | 33919 ft | 375 kts | 270° |
| 2026-05-03 22:52 | 35.27730 | -100.71565 | 33934 ft | 375 kts | 270° |
| 2026-05-03 22:53 | 35.27481 | -100.77985 | 33920 ft | 379 kts | 270° |
| 2026-05-03 22:53 | 35.27223 | -100.84433 | 33916 ft | 380 kts | 270° |
| 2026-05-03 22:54 | 35.26959 | -100.90881 | 33911 ft | 380 kts | 270° |
| 2026-05-03 22:54 | 35.26695 | -100.97333 | 33909 ft | 380 kts | 270° |
| 2026-05-03 22:55 | 35.26431 | -101.03783 | 33911 ft | 380 kts | 270° |
| 2026-05-03 22:55 | 35.26161 | -101.10232 | 33910 ft | 380 kts | 270° |
| 2026-05-03 22:56 | 35.25931 | -101.15595 | 33911 ft | 380 kts | 270° |
| 2026-05-03 22:56 | 35.25655 | -101.22047 | 33908 ft | 380 kts | 270° |
| 2026-05-03 22:57 | 35.25374 | -101.28495 | 33913 ft | 380 kts | 270° |
| 2026-05-03 22:57 | 35.25091 | -101.34912 | 33916 ft | 372 kts | 270° |
| 2026-05-03 22:58 | 35.24811 | -101.41210 | 33955 ft | 371 kts | 270° |
| 2026-05-03 22:58 | 35.24529 | -101.47514 | 33980 ft | 371 kts | 270° |
| 2026-05-03 22:59 | 35.24242 | -101.53815 | 33998 ft | 371 kts | 270° |
| 2026-05-03 22:59 | 35.23952 | -101.60119 | 34019 ft | 371 kts | 270° |
| 2026-05-03 23:00 | 35.23657 | -101.66417 | 34017 ft | 371 kts | 270° |
| 2026-05-03 23:00 | 35.23428 | -101.72716 | 34013 ft | 370 kts | 271° |
| 2026-05-03 23:01 | 35.23284 | -101.78961 | 34005 ft | 370 kts | 271° |
| 2026-05-03 23:01 | 35.23126 | -101.85292 | 34000 ft | 370 kts | 271° |
| 2026-05-03 23:02 | 35.22968 | -101.91547 | 33986 ft | 370 kts | 271° |
| 2026-05-03 23:02 | 35.22809 | -101.97837 | 33958 ft | 370 kts | 271° |
| 2026-05-03 23:03 | 35.22650 | -102.04125 | 33954 ft | 370 kts | 271° |
| 2026-05-03 23:03 | 35.22488 | -102.10420 | 33923 ft | 370 kts | 271° |
| 2026-05-03 23:04 | 35.22320 | -102.16709 | 33925 ft | 370 kts | 271° |
| 2026-05-03 23:04 | 35.22143 | -102.23002 | 33928 ft | 370 kts | 271° |
| 2026-05-03 23:05 | 35.21965 | -102.29291 | 33927 ft | 370 kts | 271° |
| 2026-05-03 23:05 | 35.21792 | -102.35585 | 33926 ft | 370 kts | 271° |
| 2026-05-03 23:06 | 35.21617 | -102.41886 | 33904 ft | 370 kts | 271° |
| 2026-05-03 23:06 | 35.21432 | -102.48169 | 33921 ft | 370 kts | 270° |
| 2026-05-03 23:07 | 35.21241 | -102.54452 | 33926 ft | 370 kts | 270° |
| 2026-05-03 23:07 | 35.21054 | -102.60731 | 33917 ft | 370 kts | 270° |
| 2026-05-03 23:08 | 35.20858 | -102.67013 | 33923 ft | 370 kts | 270° |
| 2026-05-03 23:08 | 35.20656 | -102.73290 | 33923 ft | 370 kts | 270° |
| 2026-05-03 23:09 | 35.20452 | -102.79574 | 33906 ft | 370 kts | 270° |
| 2026-05-03 23:09 | 35.20252 | -102.85857 | 33918 ft | 370 kts | 270° |
| 2026-05-03 23:10 | 35.20048 | -102.92141 | 33912 ft | 370 kts | 270° |
| 2026-05-03 23:10 | 35.19841 | -102.98416 | 33911 ft | 370 kts | 270° |
| 2026-05-03 23:11 | 35.19626 | -103.04702 | 33912 ft | 370 kts | 270° |
| 2026-05-03 23:11 | 35.19407 | -103.10942 | 33902 ft | 370 kts | 270° |
| 2026-05-03 23:12 | 35.19188 | -103.17225 | 33897 ft | 370 kts | 270° |
| 2026-05-03 23:12 | 35.18966 | -103.23513 | 33913 ft | 370 kts | 270° |
| 2026-05-03 23:13 | 35.18736 | -103.29799 | 33929 ft | 370 kts | 270° |
| 2026-05-03 23:13 | 35.18507 | -103.36085 | 33943 ft | 370 kts | 270° |
| 2026-05-03 23:14 | 35.18275 | -103.42377 | 33958 ft | 370 kts | 270° |
| 2026-05-03 23:14 | 35.18038 | -103.48664 | 33976 ft | 370 kts | 270° |
| 2026-05-03 23:15 | 35.17795 | -103.54958 | 33977 ft | 372 kts | 270° |
| 2026-05-03 23:15 | 35.17550 | -103.61279 | 33981 ft | 372 kts | 269° |
| 2026-05-03 23:16 | 35.17303 | -103.67586 | 33981 ft | 372 kts | 269° |
| 2026-05-03 23:16 | 35.17051 | -103.73905 | 33971 ft | 372 kts | 269° |
| 2026-05-03 23:17 | 35.16801 | -103.80222 | 33946 ft | 372 kts | 269° |
| 2026-05-03 23:17 | 35.16548 | -103.86536 | 33917 ft | 372 kts | 269° |
| 2026-05-03 23:18 | 35.16289 | -103.92856 | 33894 ft | 372 kts | 269° |
| 2026-05-03 23:18 | 35.16024 | -103.99169 | 33872 ft | 372 kts | 269° |
| 2026-05-03 23:19 | 35.15757 | -104.05482 | 33856 ft | 372 kts | 269° |
| 2026-05-03 23:19 | 35.15487 | -104.11798 | 33848 ft | 372 kts | 269° |
| 2026-05-03 23:20 | 35.15212 | -104.18107 | 33846 ft | 372 kts | 269° |
| 2026-05-03 23:20 | 35.14936 | -104.24439 | 33839 ft | 372 kts | 269° |
| 2026-05-03 23:21 | 35.14661 | -104.30704 | 33848 ft | 372 kts | 269° |
| 2026-05-03 23:21 | 35.14375 | -104.37021 | 33873 ft | 373 kts | 269° |
| 2026-05-03 23:22 | 35.13942 | -104.46500 | 33906 ft | 373 kts | 269° |
| 2026-05-03 23:22 | 35.13647 | -104.52817 | 33928 ft | 372 kts | 269° |
| 2026-05-03 23:23 | 35.13352 | -104.59126 | 33939 ft | 372 kts | 269° |
| 2026-05-03 23:23 | 35.13054 | -104.65437 | 33951 ft | 372 kts | 269° |
| 2026-05-03 23:24 | 35.12753 | -104.71766 | 33949 ft | 373 kts | 269° |
| 2026-05-03 23:24 | 35.12448 | -104.78074 | 33940 ft | 372 kts | 269° |
| 2026-05-03 23:25 | 35.12138 | -104.84389 | 33921 ft | 373 kts | 269° |
| 2026-05-03 23:25 | 35.11826 | -104.90710 | 33897 ft | 372 kts | 269° |
| 2026-05-03 23:26 | 35.11510 | -104.97036 | 33894 ft | 374 kts | 269° |
| 2026-05-03 23:26 | 35.11189 | -105.03382 | 33876 ft | 374 kts | 269° |
| 2026-05-03 23:27 | 35.10980 | -105.09729 | 33886 ft | 374 kts | 270° |
| 2026-05-03 23:27 | 35.10782 | -105.16072 | 33894 ft | 374 kts | 270° |
| 2026-05-03 23:28 | 35.10580 | -105.22419 | 33926 ft | 374 kts | 270° |
| 2026-05-03 23:28 | 35.10370 | -105.28766 | 33927 ft | 374 kts | 270° |
| 2026-05-03 23:29 | 35.10162 | -105.35125 | 33922 ft | 375 kts | 269° |
| 2026-05-03 23:29 | 35.09944 | -105.41485 | 33951 ft | 375 kts | 269° |
| 2026-05-03 23:30 | 35.09725 | -105.47851 | 33952 ft | 375 kts | 269° |
| 2026-05-03 23:30 | 35.09502 | -105.54219 | 33976 ft | 375 kts | 269° |
| 2026-05-03 23:31 | 35.09279 | -105.60537 | 33975 ft | 375 kts | 269° |
| 2026-05-03 23:31 | 35.09052 | -105.66908 | 33991 ft | 375 kts | 269° |
| 2026-05-03 23:32 | 35.08825 | -105.73261 | 33993 ft | 375 kts | 269° |
| 2026-05-03 23:32 | 35.08769 | -105.79609 | 33994 ft | 374 kts | 274° |
| 2026-05-03 23:33 | 35.08938 | -105.85964 | 33995 ft | 374 kts | 271° |
| 2026-05-03 23:33 | 35.08767 | -105.92321 | 33992 ft | 376 kts | 265° |
| 2026-05-03 23:34 | 35.08038 | -105.98641 | 33996 ft | 375 kts | 266° |
| 2026-05-03 23:34 | 35.07637 | -106.05009 | 33989 ft | 377 kts | 268° |
| 2026-05-03 23:35 | 35.07371 | -106.11400 | 33991 ft | 377 kts | 269° |
| 2026-05-03 23:35 | 35.07113 | -106.17793 | 33992 ft | 377 kts | 269° |
| 2026-05-03 23:36 | 35.06853 | -106.24182 | 34004 ft | 377 kts | 269° |
| 2026-05-03 23:36 | 35.06589 | -106.30580 | 34024 ft | 377 kts | 268° |
| 2026-05-03 23:37 | 35.06314 | -106.36979 | 34033 ft | 378 kts | 268° |
| 2026-05-03 23:37 | 35.06042 | -106.43394 | 34059 ft | 379 kts | 268° |
| 2026-05-03 23:38 | 35.05765 | -106.49813 | 34078 ft | 379 kts | 268° |
| 2026-05-03 23:38 | 35.05481 | -106.56228 | 34079 ft | 379 kts | 268° |
| 2026-05-03 23:39 | 35.05198 | -106.62652 | 34083 ft | 379 kts | 268° |
| 2026-05-03 23:39 | 35.04908 | -106.69081 | 34080 ft | 379 kts | 268° |
| 2026-05-03 23:40 | 35.04621 | -106.75472 | 34101 ft | 376 kts | 268° |
| 2026-05-03 23:40 | 35.04353 | -106.81855 | 34103 ft | 376 kts | 269° |
| 2026-05-03 23:41 | 35.04207 | -106.88186 | 33940 ft | 376 kts | 269° |
| 2026-05-03 23:41 | 35.04060 | -106.94562 | 33930 ft | 376 kts | 269° |
| 2026-05-03 23:42 | 35.03898 | -107.00955 | 33932 ft | 377 kts | 269° |
| 2026-05-03 23:42 | 35.03737 | -107.07345 | 33943 ft | 373 kts | 269° |
| 2026-05-03 23:43 | 35.03600 | -107.12603 | 33917 ft | 370 kts | 269° |
| 2026-05-03 23:43 | 35.03435 | -107.18829 | 33912 ft | 370 kts | 269° |
| 2026-05-03 23:44 | 35.03263 | -107.25100 | 33910 ft | 370 kts | 269° |
| 2026-05-03 23:44 | 35.03089 | -107.31410 | 33909 ft | 370 kts | 269° |
| 2026-05-03 23:45 | 35.02913 | -107.37635 | 33905 ft | 370 kts | 269° |
| 2026-05-03 23:45 | 35.02733 | -107.43889 | 33903 ft | 367 kts | 269° |
| 2026-05-03 23:46 | 35.02552 | -107.50109 | 33899 ft | 367 kts | 269° |
| 2026-05-03 23:46 | 35.02366 | -107.56336 | 33900 ft | 367 kts | 269° |
| 2026-05-03 23:47 | 35.02180 | -107.62555 | 33904 ft | 367 kts | 269° |
| 2026-05-03 23:47 | 35.01990 | -107.68789 | 33906 ft | 368 kts | 269° |
| 2026-05-03 23:48 | 35.01798 | -107.74997 | 33888 ft | 368 kts | 268° |
| 2026-05-03 23:48 | 35.01596 | -107.81290 | 33900 ft | 368 kts | 268° |
| 2026-05-03 23:49 | 35.01395 | -107.87534 | 33899 ft | 368 kts | 268° |
| 2026-05-03 23:49 | 35.01190 | -107.93771 | 33899 ft | 368 kts | 269° |
| 2026-05-03 23:50 | 35.00981 | -108.00019 | 33893 ft | 369 kts | 268° |
| 2026-05-03 23:50 | 35.00765 | -108.06225 | 33892 ft | 369 kts | 268° |
| 2026-05-03 23:51 | 35.00548 | -108.12474 | 33887 ft | 368 kts | 268° |
| 2026-05-03 23:51 | 35.00325 | -108.18715 | 33880 ft | 368 kts | 268° |
| 2026-05-03 23:52 | 35.00103 | -108.24955 | 33884 ft | 368 kts | 268° |
| 2026-05-03 23:52 | 34.99889 | -108.31199 | 33885 ft | 368 kts | 268° |
| 2026-05-03 23:53 | 34.99673 | -108.37444 | 33884 ft | 369 kts | 268° |
| 2026-05-03 23:53 | 34.99443 | -108.43687 | 33862 ft | 369 kts | 268° |
| 2026-05-03 23:54 | 34.99210 | -108.49957 | 33872 ft | 370 kts | 268° |
| 2026-05-03 23:54 | 34.98973 | -108.56233 | 33873 ft | 370 kts | 268° |
| 2026-05-03 23:55 | 34.98735 | -108.62505 | 33882 ft | 370 kts | 268° |
| 2026-05-03 23:55 | 34.98496 | -108.68583 | 33872 ft | 371 kts | 268° |
| 2026-05-03 23:56 | 34.98249 | -108.74867 | 33870 ft | 371 kts | 268° |
| 2026-05-03 23:56 | 34.97998 | -108.81145 | 33852 ft | 372 kts | 268° |
| 2026-05-03 23:57 | 34.97740 | -108.87469 | 33860 ft | 373 kts | 268° |
| 2026-05-03 23:57 | 34.97479 | -108.93782 | 33861 ft | 373 kts | 268° |
| 2026-05-03 23:58 | 34.97217 | -109.00101 | 33850 ft | 373 kts | 268° |
| 2026-05-03 23:58 | 34.96954 | -109.06366 | 33866 ft | 373 kts | 268° |
| 2026-05-03 23:59 | 34.96683 | -109.12711 | 33832 ft | 372 kts | 268° |
| 2026-05-03 23:59 | 34.96338 | -109.18985 | 33849 ft | 374 kts | 266° |
| 2026-05-04 00:00 | 34.95921 | -109.25305 | 33845 ft | 374 kts | 266° |
| 2026-05-04 00:00 | 34.95502 | -109.31639 | 33842 ft | 375 kts | 266° |
| 2026-05-04 00:01 | 34.95083 | -109.37964 | 33840 ft | 375 kts | 266° |
| 2026-05-04 00:01 | 34.94658 | -109.44294 | 33837 ft | 375 kts | 266° |
| 2026-05-04 00:02 | 34.94229 | -109.50620 | 33830 ft | 375 kts | 266° |
| 2026-05-04 00:02 | 34.93795 | -109.56951 | 33833 ft | 375 kts | 266° |
| 2026-05-04 00:03 | 34.93358 | -109.63288 | 33832 ft | 374 kts | 266° |
| 2026-05-04 00:03 | 34.92918 | -109.69609 | 33829 ft | 375 kts | 266° |
| 2026-05-04 00:04 | 34.92476 | -109.75940 | 33832 ft | 375 kts | 266° |
| 2026-05-04 00:04 | 34.92031 | -109.82217 | 33818 ft | 374 kts | 266° |
| 2026-05-04 00:05 | 34.91580 | -109.88533 | 33819 ft | 374 kts | 266° |
| 2026-05-04 00:05 | 34.91116 | -109.94845 | 33815 ft | 374 kts | 265° |
| 2026-05-04 00:06 | 34.90658 | -110.01156 | 33818 ft | 374 kts | 266° |
| 2026-05-04 00:06 | 34.90201 | -110.07462 | 33815 ft | 374 kts | 266° |
| 2026-05-04 00:07 | 34.89751 | -110.13772 | 33821 ft | 374 kts | 266° |
| 2026-05-04 00:07 | 34.89293 | -110.20048 | 33823 ft | 371 kts | 265° |
| 2026-05-04 00:08 | 34.88829 | -110.26311 | 33811 ft | 371 kts | 265° |
| 2026-05-04 00:08 | 34.88353 | -110.32578 | 33812 ft | 371 kts | 265° |
| 2026-05-04 00:09 | 34.87883 | -110.38841 | 33810 ft | 371 kts | 265° |
| 2026-05-04 00:09 | 34.87410 | -110.45108 | 33816 ft | 372 kts | 265° |
| 2026-05-04 00:10 | 34.86927 | -110.51324 | 33823 ft | 371 kts | 265° |
| 2026-05-04 00:10 | 34.86454 | -110.57578 | 33816 ft | 371 kts | 265° |
| 2026-05-04 00:11 | 34.85966 | -110.63824 | 33932 ft | 371 kts | 265° |
| 2026-05-04 00:11 | 34.85485 | -110.70078 | 33937 ft | 371 kts | 265° |
| 2026-05-04 00:12 | 34.84998 | -110.76335 | 33937 ft | 371 kts | 265° |
| 2026-05-04 00:12 | 34.84504 | -110.82593 | 33920 ft | 371 kts | 265° |
| 2026-05-04 00:13 | 34.84010 | -110.88831 | 33917 ft | 371 kts | 265° |
| 2026-05-04 00:13 | 34.83509 | -110.95082 | 33907 ft | 371 kts | 265° |
| 2026-05-04 00:14 | 34.83006 | -111.01302 | 33899 ft | 371 kts | 265° |
| 2026-05-04 00:14 | 34.82500 | -111.07540 | 33880 ft | 371 kts | 265° |
| 2026-05-04 00:15 | 34.81990 | -111.13807 | 33876 ft | 371 kts | 265° |
| 2026-05-04 00:15 | 34.81482 | -111.19991 | 33890 ft | 365 kts | 264° |
| 2026-05-04 00:16 | 34.80974 | -111.26144 | 33887 ft | 366 kts | 264° |
| 2026-05-04 00:16 | 34.80462 | -111.32304 | 33891 ft | 366 kts | 264° |
| 2026-05-04 00:17 | 34.79947 | -111.38449 | 33886 ft | 364 kts | 265° |
| 2026-05-04 00:17 | 34.79433 | -111.44587 | 33890 ft | 366 kts | 264° |
| 2026-05-04 00:18 | 34.78916 | -111.50708 | 33896 ft | 369 kts | 264° |
| 2026-05-04 00:18 | 34.78386 | -111.56920 | 33935 ft | 370 kts | 264° |
| 2026-05-04 00:19 | 34.77854 | -111.63119 | 33958 ft | 370 kts | 264° |
| 2026-05-04 00:19 | 34.77312 | -111.69370 | 33972 ft | 370 kts | 264° |
| 2026-05-04 00:20 | 34.76771 | -111.75574 | 33983 ft | 368 kts | 264° |
| 2026-05-04 00:20 | 34.76231 | -111.81769 | 33996 ft | 367 kts | 264° |
| 2026-05-04 00:21 | 34.75693 | -111.87951 | 33970 ft | 367 kts | 264° |
| 2026-05-04 00:21 | 34.75149 | -111.94131 | 33943 ft | 367 kts | 264° |
| 2026-05-04 00:22 | 34.74601 | -112.00298 | 33920 ft | 367 kts | 264° |
| 2026-05-04 00:22 | 34.74050 | -112.06466 | 33884 ft | 366 kts | 264° |
| 2026-05-04 00:23 | 34.73496 | -112.12622 | 33900 ft | 368 kts | 264° |
| 2026-05-04 00:23 | 34.72935 | -112.18814 | 33928 ft | 368 kts | 264° |
| 2026-05-04 00:24 | 34.72373 | -112.24992 | 33964 ft | 368 kts | 264° |
| 2026-05-04 00:24 | 34.71811 | -112.31129 | 34000 ft | 367 kts | 264° |
| 2026-05-04 00:25 | 34.71246 | -112.37290 | 34009 ft | 367 kts | 264° |
| 2026-05-04 00:25 | 34.70675 | -112.43471 | 34012 ft | 368 kts | 264° |
| 2026-05-04 00:26 | 34.70069 | -112.49642 | 34015 ft | 367 kts | 263° |
| 2026-05-04 00:26 | 34.69725 | -112.52721 | 33829 ft | 367 kts | 263° |
| 2026-05-04 00:26 | 34.69376 | -112.55834 | 33820 ft | 368 kts | 263° |
| 2026-05-04 00:27 | 34.68688 | -112.61937 | 33800 ft | 367 kts | 263° |
| 2026-05-04 00:27 | 34.67993 | -112.68069 | 33802 ft | 367 kts | 263° |
| 2026-05-04 00:28 | 34.67291 | -112.74221 | 33798 ft | 367 kts | 263° |
| 2026-05-04 00:28 | 34.66591 | -112.80360 | 33800 ft | 365 kts | 263° |
| 2026-05-04 00:29 | 34.65894 | -112.86423 | 33793 ft | 362 kts | 263° |
| 2026-05-04 00:29 | 34.65195 | -112.92470 | 33790 ft | 362 kts | 263° |
| 2026-05-04 00:30 | 34.64612 | -112.97523 | 33792 ft | 358 kts | 263° |
| 2026-05-04 00:30 | 34.63914 | -113.03519 | 33796 ft | 360 kts | 262° |
| 2026-05-04 00:31 | 34.63217 | -113.09495 | 33774 ft | 361 kts | 263° |
| 2026-05-04 00:31 | 34.62508 | -113.15520 | 33776 ft | 360 kts | 262° |
| 2026-05-04 00:32 | 34.61802 | -113.21516 | 33772 ft | 359 kts | 262° |
| 2026-05-04 00:32 | 34.61094 | -113.27499 | 33763 ft | 359 kts | 262° |
| 2026-05-04 00:33 | 34.60026 | -113.36480 | 33738 ft | 358 kts | 262° |
| 2026-05-04 00:34 | 34.59308 | -113.42476 | 33734 ft | 359 kts | 262° |
| 2026-05-04 00:34 | 34.58597 | -113.48396 | 33758 ft | 355 kts | 262° |
| 2026-05-04 00:35 | 34.57877 | -113.54347 | 33727 ft | 354 kts | 262° |
| 2026-05-04 00:35 | 34.57161 | -113.60259 | 33728 ft | 355 kts | 262° |
| 2026-05-04 00:36 | 34.56434 | -113.66183 | 33725 ft | 355 kts | 262° |
| 2026-05-04 00:36 | 34.55699 | -113.72101 | 33722 ft | 355 kts | 262° |
| 2026-05-04 00:37 | 34.54973 | -113.78011 | 33714 ft | 352 kts | 262° |
| 2026-05-04 00:37 | 34.54251 | -113.83870 | 33713 ft | 351 kts | 262° |
| 2026-05-04 00:38 | 34.53538 | -113.89734 | 33701 ft | 351 kts | 262° |
| 2026-05-04 00:38 | 34.52815 | -113.95605 | 33700 ft | 352 kts | 262° |
| 2026-05-04 00:39 | 34.52086 | -114.01470 | 33700 ft | 352 kts | 262° |
| 2026-05-04 00:39 | 34.51216 | -114.07313 | 33699 ft | 353 kts | 258° |
| 2026-05-04 00:40 | 34.50008 | -114.13022 | 33712 ft | 348 kts | 257° |
| 2026-05-04 00:40 | 34.48818 | -114.18631 | 33709 ft | 348 kts | 257° |
| 2026-05-04 00:41 | 34.47608 | -114.24354 | 33716 ft | 348 kts | 257° |
| 2026-05-04 00:41 | 34.46400 | -114.30038 | 33710 ft | 348 kts | 257° |
| 2026-05-04 00:42 | 34.45194 | -114.35699 | 33683 ft | 348 kts | 257° |
| 2026-05-04 00:42 | 34.43983 | -114.41377 | 33677 ft | 346 kts | 257° |
| 2026-05-04 00:43 | 34.42775 | -114.47022 | 33668 ft | 346 kts | 257° |
| 2026-05-04 00:43 | 34.41564 | -114.52666 | 33669 ft | 346 kts | 257° |
| 2026-05-04 00:44 | 34.40341 | -114.58311 | 33671 ft | 346 kts | 257° |
| 2026-05-04 00:44 | 34.39122 | -114.63944 | 33680 ft | 346 kts | 257° |
| 2026-05-04 00:45 | 34.37912 | -114.69581 | 33672 ft | 346 kts | 257° |
| 2026-05-04 00:45 | 34.36695 | -114.75206 | 33684 ft | 346 kts | 257° |
| 2026-05-04 00:46 | 34.35471 | -114.80833 | 33733 ft | 345 kts | 257° |
| 2026-05-04 00:46 | 34.34245 | -114.86448 | 33718 ft | 345 kts | 257° |
| 2026-05-04 00:47 | 34.33020 | -114.92072 | 33697 ft | 345 kts | 257° |
| 2026-05-04 00:47 | 34.31798 | -114.97691 | 33688 ft | 346 kts | 257° |
| 2026-05-04 00:48 | 34.30568 | -115.03309 | 33697 ft | 343 kts | 257° |
| 2026-05-04 00:48 | 34.29348 | -115.08861 | 33689 ft | 341 kts | 257° |
| 2026-05-04 00:49 | 34.28134 | -115.14367 | 33689 ft | 341 kts | 257° |
| 2026-05-04 00:49 | 34.26908 | -115.19905 | 33691 ft | 341 kts | 257° |
| 2026-05-04 00:50 | 34.25704 | -115.25448 | 33687 ft | 341 kts | 257° |
| 2026-05-04 00:50 | 34.24529 | -115.30991 | 33696 ft | 341 kts | 257° |
| 2026-05-04 00:51 | 34.23348 | -115.36527 | 33698 ft | 340 kts | 257° |
| 2026-05-04 00:51 | 34.22157 | -115.42109 | 33701 ft | 340 kts | 257° |
| 2026-05-04 00:52 | 34.20983 | -115.47600 | 33715 ft | 340 kts | 257° |
| 2026-05-04 00:52 | 34.19791 | -115.53147 | 33694 ft | 340 kts | 257° |
| 2026-05-04 00:53 | 34.18599 | -115.58679 | 33702 ft | 340 kts | 257° |
| 2026-05-04 00:53 | 34.17405 | -115.64211 | 33705 ft | 341 kts | 257° |
| 2026-05-04 00:54 | 34.16312 | -115.69772 | 33722 ft | 340 kts | 261° |
| 2026-05-04 00:54 | 34.15746 | -115.75390 | 33753 ft | 340 kts | 263° |
| 2026-05-04 00:55 | 34.15220 | -115.80980 | 33765 ft | 340 kts | 263° |
| 2026-05-04 00:55 | 34.14676 | -115.86631 | 33780 ft | 340 kts | 263° |
| 2026-05-04 00:56 | 34.14129 | -115.92254 | 33809 ft | 340 kts | 262° |
| 2026-05-04 00:56 | 34.13572 | -115.97965 | 33823 ft | 339 kts | 262° |
| 2026-05-04 00:57 | 34.13026 | -116.03570 | 33840 ft | 339 kts | 262° |
| 2026-05-04 00:57 | 34.12467 | -116.09257 | 33846 ft | 339 kts | 262° |
| 2026-05-04 00:58 | 34.11908 | -116.14892 | 33841 ft | 338 kts | 262° |
| 2026-05-04 00:58 | 34.11349 | -116.20487 | 33840 ft | 338 kts | 262° |
| 2026-05-04 00:58 | 34.11070 | -116.23298 | 33642 ft | 335 kts | 262° |
| 2026-05-04 00:59 | 34.10797 | -116.26070 | 32933 ft | 332 kts | 262° |
| 2026-05-04 00:59 | 34.10526 | -116.28826 | 32172 ft | 332 kts | 262° |
| 2026-05-04 00:59 | 34.10246 | -116.31597 | 31587 ft | 331 kts | 262° |
| 2026-05-04 00:59 | 34.09947 | -116.34388 | 31267 ft | 344 kts | 262° |
| 2026-05-04 01:00 | 34.09627 | -116.37316 | 31019 ft | 356 kts | 261° |
| 2026-05-04 01:00 | 34.09304 | -116.40302 | 30779 ft | 361 kts | 261° |
| 2026-05-04 01:00 | 34.08976 | -116.43323 | 30534 ft | 364 kts | 262° |
| 2026-05-04 01:00 | 34.08653 | -116.46321 | 30241 ft | 355 kts | 262° |
| 2026-05-04 01:01 | 34.08341 | -116.49228 | 29916 ft | 346 kts | 261° |
| 2026-05-04 01:01 | 34.08034 | -116.52099 | 29509 ft | 344 kts | 261° |
| 2026-05-04 01:01 | 34.07728 | -116.54959 | 29096 ft | 343 kts | 261° |
| 2026-05-04 01:01 | 34.07423 | -116.57799 | 28662 ft | 341 kts | 262° |
| 2026-05-04 01:02 | 34.07145 | -116.60633 | 28272 ft | 336 kts | 262° |
| 2026-05-04 01:02 | 34.06891 | -116.63404 | 27900 ft | 329 kts | 262° |
| 2026-05-04 01:02 | 34.06641 | -116.66118 | 27490 ft | 323 kts | 262° |
| 2026-05-04 01:02 | 34.06393 | -116.68796 | 27092 ft | 320 kts | 262° |
| 2026-05-04 01:03 | 34.06144 | -116.71459 | 26676 ft | 319 kts | 262° |
| 2026-05-04 01:03 | 34.05895 | -116.74115 | 26271 ft | 317 kts | 262° |
| 2026-05-04 01:03 | 34.05650 | -116.76744 | 25901 ft | 316 kts | 262° |
| 2026-05-04 01:03 | 34.05403 | -116.79380 | 25472 ft | 316 kts | 262° |
| 2026-05-04 01:04 | 34.05157 | -116.82009 | 25030 ft | 314 kts | 262° |
| 2026-05-04 01:04 | 34.04910 | -116.84617 | 24603 ft | 314 kts | 262° |
| 2026-05-04 01:04 | 34.04660 | -116.87237 | 24238 ft | 313 kts | 261° |
| 2026-05-04 01:04 | 34.04382 | -116.89826 | 23854 ft | 310 kts | 259° |
| 2026-05-04 01:05 | 34.04055 | -116.92387 | 23549 ft | 310 kts | 259° |
| 2026-05-04 01:05 | 34.03721 | -116.94953 | 23147 ft | 309 kts | 259° |
| 2026-05-04 01:05 | 34.03389 | -116.97504 | 22686 ft | 307 kts | 259° |
| 2026-05-04 01:05 | 34.03060 | -117.00035 | 22248 ft | 305 kts | 259° |
| 2026-05-04 01:06 | 34.02732 | -117.02556 | 21804 ft | 303 kts | 259° |
| 2026-05-04 01:06 | 34.02416 | -117.05058 | 21370 ft | 302 kts | 259° |
| 2026-05-04 01:06 | 34.02129 | -117.07526 | 20949 ft | 300 kts | 259° |
| 2026-05-04 01:06 | 34.01834 | -117.10043 | 20520 ft | 299 kts | 259° |
| 2026-05-04 01:07 | 34.01544 | -117.12482 | 20120 ft | 297 kts | 259° |
| 2026-05-04 01:07 | 34.01251 | -117.14945 | 19705 ft | 296 kts | 259° |
| 2026-05-04 01:07 | 34.00958 | -117.17399 | 19302 ft | 295 kts | 259° |
| 2026-05-04 01:07 | 34.00666 | -117.19828 | 18929 ft | 294 kts | 259° |
| 2026-05-04 01:08 | 34.00373 | -117.22265 | 18515 ft | 294 kts | 259° |
| 2026-05-04 01:08 | 34.00087 | -117.24696 | 18062 ft | 294 kts | 259° |
| 2026-05-04 01:08 | 33.99798 | -117.27136 | 17565 ft | 293 kts | 259° |
| 2026-05-04 01:08 | 33.99509 | -117.29565 | 17163 ft | 294 kts | 259° |
| 2026-05-04 01:09 | 33.99215 | -117.32003 | 16786 ft | 294 kts | 259° |
| 2026-05-04 01:09 | 33.98927 | -117.34448 | 16378 ft | 295 kts | 259° |
| 2026-05-04 01:09 | 33.98643 | -117.36890 | 15956 ft | 295 kts | 259° |
| 2026-05-04 01:09 | 33.98486 | -117.38239 | 15718 ft | 295 kts | 259° |
| 2026-05-04 01:10 | 33.98190 | -117.40614 | 15311 ft | 295 kts | 257° |
| 2026-05-04 01:10 | 33.97828 | -117.43049 | 14919 ft | 296 kts | 255° |
| 2026-05-04 01:10 | 33.97407 | -117.45472 | 14522 ft | 294 kts | 253° |
| 2026-05-04 01:10 | 33.96936 | -117.47847 | 14136 ft | 292 kts | 252° |
| 2026-05-04 01:11 | 33.96407 | -117.50208 | 13745 ft | 293 kts | 250° |
| 2026-05-04 01:11 | 33.96150 | -117.52661 | 13289 ft | 301 kts | 273° |
| 2026-05-04 01:11 | 33.96894 | -117.55048 | 12910 ft | 312 kts | 298° |
| 2026-05-04 01:11 | 33.98189 | -117.57152 | 12523 ft | 314 kts | 301° |
| 2026-05-04 01:12 | 33.99321 | -117.59372 | 12110 ft | 311 kts | 291° |
| 2026-05-04 01:12 | 34.00129 | -117.61797 | 11687 ft | 309 kts | 285° |
| 2026-05-04 01:12 | 34.00799 | -117.64266 | 11268 ft | 310 kts | 283° |
| 2026-05-04 01:12 | 34.01420 | -117.66738 | 10918 ft | 305 kts | 282° |
| 2026-05-04 01:13 | 34.01968 | -117.69150 | 10712 ft | 291 kts | 277° |
| 2026-05-04 01:13 | 34.02074 | -117.71512 | 10421 ft | 277 kts | 262° |
| 2026-05-04 01:13 | 34.01866 | -117.73771 | 10036 ft | 273 kts | 259° |
| 2026-05-04 01:13 | 34.01619 | -117.76035 | 9576 ft | 271 kts | 259° |
| 2026-05-04 01:14 | 34.01377 | -117.78289 | 9124 ft | 273 kts | 260° |
| 2026-05-04 01:14 | 34.01139 | -117.80561 | 8695 ft | 275 kts | 260° |
| 2026-05-04 01:14 | 34.00904 | -117.82864 | 8280 ft | 277 kts | 260° |
| 2026-05-04 01:14 | 34.00677 | -117.85164 | 7898 ft | 275 kts | 261° |
| 2026-05-04 01:15 | 34.00462 | -117.87445 | 7503 ft | 275 kts | 260° |
| 2026-05-04 01:15 | 34.00238 | -117.89730 | 7128 ft | 274 kts | 260° |
| 2026-05-04 01:15 | 34.00083 | -117.91263 | 6968 ft | 269 kts | 261° |
| 2026-05-04 01:15 | 33.99798 | -117.94092 | 6749 ft | 254 kts | 261° |
| 2026-05-04 01:16 | 33.99603 | -117.96157 | 6607 ft | 242 kts | 261° |
| 2026-05-04 01:16 | 33.99474 | -117.97482 | 6421 ft | 239 kts | 260° |
| 2026-05-04 01:16 | 33.99276 | -117.99479 | 6052 ft | 238 kts | 261° |
| 2026-05-04 01:16 | 33.99088 | -118.01418 | 5701 ft | 235 kts | 261° |
| 2026-05-04 01:17 | 33.98887 | -118.03387 | 5372 ft | 232 kts | 261° |
| 2026-05-04 01:17 | 33.98698 | -118.05280 | 5062 ft | 230 kts | 263° |
| 2026-05-04 01:17 | 33.98549 | -118.07197 | 4738 ft | 230 kts | 265° |
| 2026-05-04 01:17 | 33.98390 | -118.09118 | 4383 ft | 231 kts | 261° |
| 2026-05-04 01:18 | 33.98201 | -118.11030 | 4055 ft | 228 kts | 262° |
| 2026-05-04 01:18 | 33.98008 | -118.12922 | 3865 ft | 226 kts | 261° |
| 2026-05-04 01:18 | 33.97820 | -118.14764 | 3718 ft | 216 kts | 261° |
| 2026-05-04 01:18 | 33.97643 | -118.16488 | 3695 ft | 197 kts | 261° |
| 2026-05-04 01:19 | 33.97484 | -118.18043 | 3651 ft | 180 kts | 261° |
| 2026-05-04 01:19 | 33.97328 | -118.19541 | 3479 ft | 182 kts | 262° |
| 2026-05-04 01:19 | 33.97175 | -118.21041 | 3296 ft | 178 kts | 261° |
| 2026-05-04 01:19 | 33.97024 | -118.22517 | 3100 ft | 176 kts | 261° |
| 2026-05-04 01:20 | 33.96872 | -118.23997 | 2847 ft | 180 kts | 261° |
| 2026-05-04 01:20 | 33.96720 | -118.25483 | 2602 ft | 176 kts | 261° |
| 2026-05-04 01:20 | 33.96573 | -118.26917 | 2372 ft | 168 kts | 260° |
| 2026-05-04 01:20 | 33.96435 | -118.28264 | 2132 ft | 153 kts | 260° |
| 2026-05-04 01:21 | 33.96312 | -118.29461 | 1902 ft | 132 kts | 261° |
| 2026-05-04 01:21 | 33.96200 | -118.30549 | 1711 ft | 130 kts | 260° |
| 2026-05-04 01:21 | 33.96089 | -118.31629 | 1520 ft | 131 kts | 260° |
| 2026-05-04 01:21 | 33.95970 | -118.32703 | 1389 ft | 127 kts | 259° |
| 2026-05-04 01:22 | 33.95863 | -118.33770 | 1178 ft | 130 kts | 259° |
| 2026-05-04 01:22 | 33.95750 | -118.34845 | 1054 ft | 126 kts | 260° |
| 2026-05-04 01:22 | 33.95643 | -118.35900 | 855 ft | 126 kts | 260° |
| 2026-05-04 01:22 | 33.95530 | -118.36934 | 696 ft | 127 kts | 262° |
| 2026-05-04 01:23 | 33.95439 | -118.37978 | 525 ft | 125 kts | 262° |
| 2026-05-04 01:23 | 33.95334 | -118.38994 | 338 ft | 121 kts | 261° |
| 2026-05-04 01:23 | 33.95232 | -118.39999 | 175 ft | 123 kts | 262° |
| 2026-05-04 01:23 | 33.95124 | -118.41014 | 115 ft | 116 kts | 261° |
| 2026-05-04 01:24 | 33.95035 | -118.41895 | 101 ft | 87 kts | 263° |
| 2026-05-04 01:24 | 33.94985 | -118.42379 | 99 ft | 29 kts | 256° |
| 2026-05-04 01:24 | 33.94959 | -118.42497 | 99 ft | 13 kts | 248° |
| 2026-05-04 01:24 | 33.94906 | -118.42596 | 100 ft | 15 kts | 235° |
| 2026-05-04 01:25 | 33.94836 | -118.42699 | 101 ft | 15 kts | 222° |
| 2026-05-04 01:25 | 33.94738 | -118.42771 | 103 ft | 14 kts | 199° |
| 2026-05-04 01:25 | 33.94668 | -118.42777 | 102 ft | 11 kts | 151° |
| 2026-05-04 01:25 | 33.94636 | -118.42695 | 100 ft | 13 kts | 85° |
| 2026-05-04 01:26 | 33.94646 | -118.42579 | 102 ft | 15 kts | 84° |
| 2026-05-04 01:26 | 33.94656 | -118.42476 | 100 ft | 8 kts | 82° |
| 2026-05-04 01:26 | 33.94667 | -118.42393 | 99 ft | 12 kts | 81° |
| 2026-05-04 01:26 | 33.94680 | -118.42280 | 99 ft | 15 kts | 84° |
| 2026-05-04 01:27 | 33.94692 | -118.42146 | 101 ft | 17 kts | 84° |
| 2026-05-04 01:27 | 33.94705 | -118.41996 | 100 ft | 19 kts | 84° |
| 2026-05-04 01:27 | 33.94721 | -118.41844 | 100 ft | 13 kts | 82° |
| 2026-05-04 01:27 | 33.94730 | -118.41767 | 101 ft | 9 kts | 82° |
| 2026-05-04 01:28 | 33.94740 | -118.41675 | 99 ft | 13 kts | 84° |
| 2026-05-04 01:28 | 33.94752 | -118.41539 | 98 ft | 19 kts | 84° |
| 2026-05-04 01:28 | 33.94779 | -118.41374 | 100 ft | 21 kts | 75° |
| 2026-05-04 01:28 | 33.94802 | -118.41192 | 102 ft | 23 kts | 83° |
| 2026-05-04 01:29 | 33.94822 | -118.40995 | 101 ft | 25 kts | 82° |
| 2026-05-04 01:29 | 33.94843 | -118.40781 | 100 ft | 27 kts | 83° |
| 2026-05-04 01:29 | 33.94851 | -118.40631 | 100 ft | 14 kts | 122° |
| 2026-05-04 01:29 | 33.94762 | -118.40583 | 100 ft | 15 kts | 171° |
| 2026-05-04 01:30 | 33.94652 | -118.40567 | 100 ft | 8 kts | 174° |
| 2026-05-04 01:30 | 33.94599 | -118.40562 | 99 ft | 9 kts | 188° |
| 2026-05-04 01:30 | 33.94570 | -118.40601 | 99 ft | 0 kts | 246° |
| 2026-05-04 01:32 | 33.94570 | -118.40602 | 99 ft | 1 kts | 249° |
| 2026-05-04 01:32 | 33.94568 | -118.40615 | 98 ft | 0 kts | 266° |
| 2026-05-04 01:32 | 33.94567 | -118.40618 | 98 ft | 2 kts | 259° |
| 2026-05-04 01:33 | 33.94566 | -118.40624 | 98 ft | 1 kts | 262° |
| 2026-05-04 01:33 | 33.94565 | -118.40631 | 98 ft | 2 kts | 259° |
| 2026-05-04 01:33 | 33.94564 | -118.40638 | 98 ft | 0 kts | 260° |